Time;durP1;ratioP1;P1;durP2;ratioP2;P2;SDS_P1;SDS_P2;PMS_P1;PMS_P2;Temp;Humidity;BMP_temperature;BMP_pressure;BME280_temperature;BME280_humidity;BME280_pressure;Samples;Min_cycle;Max_cycle;Signal;HPM_P1;HPM_P2
2023/11/27 06:28:21;;;;;;;;;;;;;;;-2.38;100.00;97161.58;1774679;80;20109;-66
2023/11/27 06:30:50;;;;;;;;;;;;;;;-2.33;100.00;97159.63;1771769;80;20150;-70
2023/11/27 06:33:16;;;;;;;;;;;;;;;-2.27;100.00;97169.52;1786551;80;20159;-80
2023/11/27 06:35:44;;;;;;;;;;;;;;;-2.18;100.00;97155.48;1787302;80;20407;-80
2023/11/27 06:38:11;;;;;;;;;;;;;;;-2.15;100.00;97166.80;1777765;80;20106;-66
2023/11/27 06:40:39;;;;;;;;;;;;;;;-2.10;100.00;97160.58;1780979;81;20145;-68
2023/11/27 06:43:06;;;;;;;;;;;;;;;-2.03;100.00;97163.63;1761740;80;20110;-70
2023/11/27 06:45:34;;;;;;;;;;;;;;;-1.97;100.00;97162.47;1766499;80;20153;-72
2023/11/27 06:48:03;;;;;;;;;;;;;;;-1.92;100.00;97168.16;1772258;81;20466;-76
2023/11/27 06:50:30;;;;;;;;;;;;;;;-1.87;100.00;97180.22;1745313;81;20146;-68
2023/11/27 06:52:57;;;;;;;;;;;;;;;-1.83;100.00;97167.69;1745962;80;20174;-70
2023/11/27 06:55:23;;;;;;;;;;;;;;;-1.79;100.00;97170.00;1769648;80;20214;-72
2023/11/27 06:57:50;;;;;;;;;;;;;;;-1.75;100.00;97178.31;1772258;79;20165;-74
2023/11/27 07:00:17;;;;;;;;;;;;;;;-1.70;100.00;97175.90;1775660;80;20137;-71
2023/11/27 07:02:44;;;;;;;;;;;;;;;-1.64;100.00;97179.03;1778460;79;20349;-68
2023/11/27 07:05:11;;;;;;;;;;;;;;;-1.60;100.00;97179.24;1774413;80;20440;-71
2023/11/27 07:07:38;;;;;;;;;;;;;;;-1.57;100.00;97179.05;1777277;80;20148;-75
2023/11/27 07:10:05;;;;;;;;;;;;;;;-1.54;100.00;97175.06;1776356;80;20401;-74
2023/11/27 07:12:32;;;;;;;;;;;;;;;-1.51;100.00;97183.83;1775197;80;20145;-77
2023/11/27 07:14:59;;;;;;;;;;;;;;;-1.47;100.00;97187.87;1770258;80;20160;-79
2023/11/27 07:17:26;;;;;;;;;;;;;;;-1.45;100.00;97192.44;1761511;81;20094;-81
2023/11/27 07:19:52;;;;;;;;;;;;;;;-1.45;100.00;97189.44;1776245;79;20124;-76
2023/11/27 07:22:19;;;;;;;;;;;;;;;-1.45;100.00;97177.95;1776304;80;20098;-71
2023/11/27 07:24:45;;;;;;;;;;;;;;;-1.42;100.00;97193.55;1766295;80;20153;-73
2023/11/27 07:27:15;;;;;;;;;;;;;;;-1.39;100.00;97198.05;1762217;80;20167;-77
2023/11/27 07:29:41;;;;;;;;;;;;;;;-1.36;100.00;97199.16;1757296;80;20178;-80
2023/11/27 07:32:08;;;;;;;;;;;;;;;-1.35;100.00;97199.53;1739668;80;20114;-77
2023/11/27 07:34:35;;;;;;;;;;;;;;;-1.33;100.00;97203.73;1760572;80;20164;-79
2023/11/27 07:37:02;;;;;;;;;;;;;;;-1.29;100.00;97201.39;1762645;80;20135;-77
2023/11/27 07:39:29;;;;;;;;;;;;;;;-1.27;100.00;97205.51;1756398;80;20193;-77
2023/11/27 07:41:55;;;;;;;;;;;;;;;-1.27;100.00;97204.23;1754933;80;20365;-82
2023/11/27 07:44:25;;;;;;;;;;;;;;;-1.24;100.00;97213.00;1762062;80;20585;-73
2023/11/27 07:46:50;;;;;;;;;;;;;;;-1.22;100.00;97202.25;1751169;80;20376;-76
2023/11/27 07:49:18;;;;;;;;;;;;;;;-1.19;100.00;97216.55;1758102;80;20181;-76
2023/11/27 07:51:45;;;;;;;;;;;;;;;-1.19;100.00;97222.94;1764100;80;20110;-75
2023/11/27 07:54:12;;;;;;;;;;;;;;;-1.18;100.00;97234.80;1751002;80;20452;-73
2023/11/27 07:56:39;;;;;;;;;;;;;;;-1.19;100.00;97228.87;1761037;80;20394;-73
2023/11/27 07:59:06;;;;;;;;;;;;;;;-1.20;100.00;97232.33;1763106;80;20129;-74
2023/11/27 08:01:34;;;;;;;;;;;;;;;-1.20;100.00;97237.44;1751957;80;20122;-70
2023/11/27 08:04:00;;;;;;;;;;;;;;;-1.19;100.00;97243.36;1764761;80;20578;-71
2023/11/27 08:06:27;;;;;;;;;;;;;;;-1.17;100.00;97241.55;1767352;80;20140;-78
2023/11/27 08:08:55;;;;;;;;;;;;;;;-1.15;100.00;97244.84;1765868;80;20411;-79
2023/11/27 08:11:32;;;;;;;;;;;;;;;-1.14;100.00;97249.05;1731461;81;20152;-71
2023/11/27 08:13:59;;;;;;;;;;;;;;;-1.11;100.00;97246.33;1689062;84;20137;-74
2023/11/27 08:16:26;;;;;;;;;;;;;;;-1.08;100.00;97246.17;1719246;82;20204;-79
2023/11/27 08:18:53;;;;;;;;;;;;;;;-1.07;100.00;97247.81;1699117;83;20119;-71
2023/11/27 08:21:20;;;;;;;;;;;;;;;-1.06;100.00;97250.75;1721341;81;20125;-70
2023/11/27 08:23:47;;;;;;;;;;;;;;;-1.07;100.00;97247.37;1718906;81;20103;-76
2023/11/27 08:26:15;;;;;;;;;;;;;;;-1.06;100.00;97252.02;1686440;84;20102;-73
2023/11/27 08:28:42;;;;;;;;;;;;;;;-1.06;100.00;97245.19;1701646;84;20131;-71
2023/11/27 08:31:08;;;;;;;;;;;;;;;-1.08;100.00;97239.78;1701365;84;20415;-71
2023/11/27 08:33:36;;;;;;;;;;;;;;;-1.09;100.00;97245.34;1686515;84;20111;-75
